Time;durP1;ratioP1;P1;durP2;ratioP2;P2;SDS_P1;SDS_P2;PMS_P1;PMS_P2;Temp;Humidity;BMP_temperature;BMP_pressure;BME280_temperature;BME280_humidity;BME280_pressure;Samples;Min_cycle;Max_cycle;Signal;HPM_P1;HPM_P2
2021/05/02 00:00:40;;;;;;;;;;;9.10;60.20;;;;;;10427512;28;20378;-64
2021/05/02 00:05:42;;;;;;;;;;;9.10;60.90;;;;;;10434609;28;20437;-64
2021/05/02 00:10:43;;;;;;;;;;;9.10;61.10;;;;;;10445872;28;19956;-64
2021/05/02 00:15:44;;;;;;;;;;;9.00;61.40;;;;;;10445080;28;19932;-64
2021/05/02 00:20:46;;;;;;;;;;;8.90;61.90;;;;;;10444605;28;20284;-64
2021/05/02 00:25:48;;;;;;;;;;;8.90;61.90;;;;;;10442522;28;19932;-64
2021/05/02 00:30:49;;;;;;;;;;;8.90;63.30;;;;;;10437718;28;20443;-64
2021/05/02 00:35:52;;;;;;;;;;;8.80;63.90;;;;;;10452209;28;19956;-65
2021/05/02 00:40:55;;;;;;;;;;;8.80;64.90;;;;;;10454385;28;20035;-64
2021/05/02 00:46:14;;;;;;;;;;;8.80;65.50;;;;;;10453018;28;19928;-64
2021/05/02 00:51:16;;;;;;;;;;;8.70;66.20;;;;;;10452691;28;20300;-64
2021/05/02 00:56:21;;;;;;;;;;;8.60;66.70;;;;;;10445839;28;19925;-64
2021/05/02 01:01:23;;;;;;;;;;;8.60;66.40;;;;;;10434957;28;19967;-64
2021/05/02 01:06:24;;;;;;;;;;;8.60;64.80;;;;;;10432335;28;20456;-64
2021/05/02 01:11:26;;;;;;;;;;;8.50;64.80;;;;;;10435219;28;20035;-64
2021/05/02 01:16:29;;;;;;;;;;;8.40;64.70;;;;;;10452061;28;20032;-64
2021/05/02 01:21:31;;;;;;;;;;;8.40;64.80;;;;;;10452278;28;19951;-64
2021/05/02 01:26:34;;;;;;;;;;;8.40;64.70;;;;;;10450258;28;19971;-64
2021/05/02 01:31:35;;;;;;;;;;;8.40;65.90;;;;;;10456518;28;20466;-64
2021/05/02 01:36:38;;;;;;;;;;;8.40;65.00;;;;;;10450330;28;19925;-64
2021/05/02 01:41:39;;;;;;;;;;;8.40;65.90;;;;;;10451732;28;20015;-64
2021/05/02 01:46:41;;;;;;;;;;;8.30;66.80;;;;;;10450267;28;20385;-64
2021/05/02 01:51:43;;;;;;;;;;;8.30;67.00;;;;;;10451346;28;19991;-64
2021/05/02 01:56:45;;;;;;;;;;;8.30;67.50;;;;;;10448434;28;20015;-64
2021/05/02 02:01:48;;;;;;;;;;;8.20;67.80;;;;;;10426108;28;20339;-64
2021/05/02 02:06:49;;;;;;;;;;;8.10;69.20;;;;;;10445276;28;19925;-64
2021/05/02 02:11:51;;;;;;;;;;;8.10;70.00;;;;;;10457461;28;19995;-64
2021/05/02 02:16:53;;;;;;;;;;;8.10;70.40;;;;;;10457071;28;20012;-64
2021/05/02 02:21:55;;;;;;;;;;;8.00;71.60;;;;;;10456356;28;19943;-64
2021/05/02 02:26:57;;;;;;;;;;;8.00;72.20;;;;;;10456238;28;20007;-65
2021/05/02 02:31:59;;;;;;;;;;;8.00;74.20;;;;;;10441211;28;20403;-64
2021/05/02 02:37:01;;;;;;;;;;;7.90;74.60;;;;;;10447214;28;20274;-64
2021/05/02 02:42:02;;;;;;;;;;;7.90;76.20;;;;;;10455892;28;19968;-64
2021/05/02 02:47:05;;;;;;;;;;;7.80;77.80;;;;;;10455747;28;20007;-64
2021/05/02 02:52:08;;;;;;;;;;;7.80;79.30;;;;;;10454451;28;20062;-64
2021/05/02 02:57:11;;;;;;;;;;;7.80;80.60;;;;;;10426442;28;19976;-65
2021/05/02 03:02:14;;;;;;;;;;;7.90;82.20;;;;;;10454196;28;20214;-64
2021/05/02 03:07:17;;;;;;;;;;;7.80;82.70;;;;;;10450228;28;19924;-64
2021/05/02 03:12:20;;;;;;;;;;;7.80;83.60;;;;;;10447614;28;20011;-64
2021/05/02 03:17:22;;;;;;;;;;;7.70;85.70;;;;;;10448161;28;19983;-64
2021/05/02 03:22:44;;;;;;;;;;;7.70;87.60;;;;;;10445284;28;19976;-64
2021/05/02 03:27:51;;;;;;;;;;;7.70;89.10;;;;;;10438962;28;19924;-64
2021/05/02 03:32:54;;;;;;;;;;;7.60;90.90;;;;;;10427196;28;20410;-64
2021/05/02 03:38:19;;;;;;;;;;;7.50;92.50;;;;;;10446603;28;20431;-64
2021/05/02 03:43:20;;;;;;;;;;;7.40;94.60;;;;;;10442649;28;19925;-64
2021/05/02 03:48:21;;;;;;;;;;;7.30;97.10;;;;;;10446524;28;19925;-64
2021/05/02 03:53:22;;;;;;;;;;;7.30;99.10;;;;;;10443508;28;20396;-64
2021/05/02 03:58:24;;;;;;;;;;;7.20;99.90;;;;;;10416716;28;20016;-64
2021/05/02 04:03:25;;;;;;;;;;;7.20;99.90;;;;;;10446119;28;19924;-65
2021/05/02 04:08:26;;;;;;;;;;;7.20;99.90;;;;;;10444573;28;20396;-64
2021/05/02 04:13:28;;;;;;;;;;;7.20;99.90;;;;;;10445853;28;20015;-64
2021/05/02 04:18:32;;;;;;;;;;;7.30;99.90;;;;;;10446238;28;19947;-64
2021/05/02 04:23:33;;;;;;;;;;;7.30;99.90;;;;;;10442300;28;20311;-64
2021/05/02 04:28:35;;;;;;;;;;;7.30;99.90;;;;;;10445524;28;19929;-64
2021/05/02 04:33:36;;;;;;;;;;;7.10;99.90;;;;;;10417937;28;19979;-64
2021/05/02 04:38:37;;;;;;;;;;;7.00;99.90;;;;;;10436690;28;20330;-64
2021/05/02 04:43:38;;;;;;;;;;;7.00;99.90;;;;;;10444642;28;19929;-64
2021/05/02 04:48:40;;;;;;;;;;;6.70;99.90;;;;;;10445649;28;19965;-64
2021/05/02 04:53:42;;;;;;;;;;;6.80;99.90;;;;;;10444313;28;19987;-64
2021/05/02 04:58:43;;;;;;;;;;;6.90;99.90;;;;;;10428549;28;20031;-64
2021/05/02 05:03:45;;;;;;;;;;;7.10;99.90;;;;;;10443606;28;19940;-64
2021/05/02 05:08:47;;;;;;;;;;;7.00;99.90;;;;;;10405774;28;20680;-64
2021/05/02 05:13:48;;;;;;;;;;;7.60;99.90;;;;;;10445383;28;20042;-64
2021/05/02 05:18:49;;;;;;;;;;;8.70;99.90;;;;;;10445508;28;20306;-64
2021/05/02 05:23:51;;;;;;;;;;;9.00;99.90;;;;;;10450678;28;19925;-64
2021/05/02 05:28:52;;;;;;;;;;;9.20;99.90;;;;;;10452331;28;19971;-64
2021/05/02 05:33:53;;;;;;;;;;;9.10;99.90;;;;;;10450889;28;20025;-64
2021/05/02 05:38:55;;;;;;;;;;;9.00;99.90;;;;;;10451619;28;19968;-65
2021/05/02 05:43:56;;;;;;;;;;;8.80;99.90;;;;;;10451919;28;20015;-65
2021/05/02 05:48:57;;;;;;;;;;;8.90;99.90;;;;;;10451255;28;20399;-65
2021/05/02 05:53:58;;;;;;;;;;;9.00;99.80;;;;;;10449908;28;19971;-64
2021/05/02 05:59:00;;;;;;;;;;;8.80;99.90;;;;;;10421656;28;20016;-65
2021/05/02 06:04:02;;;;;;;;;;;8.80;99.90;;;;;;10451366;28;20017;-65
2021/05/02 06:09:06;;;;;;;;;;;9.00;99.90;;;;;;10450312;28;20439;-65
2021/05/02 06:14:08;;;;;;;;;;;9.20;98.50;;;;;;10449237;28;20012;-65
2021/05/02 06:19:10;;;;;;;;;;;9.50;96.40;;;;;;10448827;28;20435;-64
2021/05/02 06:24:11;;;;;;;;;;;9.30;95.50;;;;;;10447704;28;19929;-65
2021/05/02 06:29:12;;;;;;;;;;;9.10;96.80;;;;;;10449566;28;20038;-65
2021/05/02 06:34:14;;;;;;;;;;;9.20;96.30;;;;;;10448489;28;20019;-65
2021/05/02 06:39:15;;;;;;;;;;;10.10;94.20;;;;;;10449151;28;20016;-65
2021/05/02 06:44:16;;;;;;;;;;;10.00;93.10;;;;;;10448452;28;20420;-65
2021/05/02 06:49:18;;;;;;;;;;;10.10;93.00;;;;;;10448371;28;19925;-65
2021/05/02 06:54:19;;;;;;;;;;;10.20;92.00;;;;;;10441886;28;20429;-65
2021/05/02 06:59:20;;;;;;;;;;;10.00;91.70;;;;;;10447995;28;20011;-65
2021/05/02 07:04:22;;;;;;;;;;;9.90;90.00;;;;;;10448148;28;19928;-65
2021/05/02 07:09:23;;;;;;;;;;;10.00;88.90;;;;;;10442446;28;20131;-65
2021/05/02 07:14:24;;;;;;;;;;;10.00;89.60;;;;;;10420962;28;20019;-65
2021/05/02 07:19:26;;;;;;;;;;;10.30;86.70;;;;;;10446277;28;19931;-65
2021/05/02 07:24:27;;;;;;;;;;;10.10;84.40;;;;;;10445531;28;19931;-65
2021/05/02 07:29:29;;;;;;;;;;;10.30;83.50;;;;;;10478135;28;20427;-65
2021/05/02 07:34:30;;;;;;;;;;;10.70;81.00;;;;;;10422334;28;20012;-64
2021/05/02 07:39:32;;;;;;;;;;;10.20;79.40;;;;;;10445934;28;19972;-65
2021/05/02 07:44:33;;;;;;;;;;;10.00;80.00;;;;;;10444647;28;19933;-65
2021/05/02 07:49:34;;;;;;;;;;;10.10;80.50;;;;;;10445325;28;19925;-64
2021/05/02 07:54:36;;;;;;;;;;;10.20;78.10;;;;;;10424171;28;19925;-64
2021/05/02 07:59:38;;;;;;;;;;;10.30;78.90;;;;;;10449557;28;19928;-64
2021/05/02 08:04:40;;;;;;;;;;;10.10;76.00;;;;;;10454195;28;20359;-65
2021/05/02 08:09:41;;;;;;;;;;;9.40;75.50;;;;;;10435443;28;20008;-64
2021/05/02 08:14:42;;;;;;;;;;;9.20;77.30;;;;;;10465504;28;19968;-65
2021/05/02 08:19:44;;;;;;;;;;;9.20;79.20;;;;;;10455166;28;19979;-64
2021/05/02 08:24:45;;;;;;;;;;;9.60;73.50;;;;;;10438098;28;19932;-61
2021/05/02 08:29:46;;;;;;;;;;;9.80;71.30;;;;;;10442782;28;19932;-61
2021/05/02 08:34:48;;;;;;;;;;;9.90;70.30;;;;;;10436692;28;19928;-61
2021/05/02 08:39:49;;;;;;;;;;;9.80;68.40;;;;;;10443754;28;20047;-61
2021/05/02 08:44:50;;;;;;;;;;;9.40;69.40;;;;;;10444387;28;19929;-61
2021/05/02 08:49:53;;;;;;;;;;;9.00;71.20;;;;;;10416553;28;19936;-61
2021/05/02 08:54:55;;;;;;;;;;;9.00;72.20;;;;;;10428879;28;19961;-61
2021/05/02 08:59:57;;;;;;;;;;;8.90;70.80;;;;;;10451469;28;19924;-61
2021/05/02 09:05:00;;;;;;;;;;;8.90;70.40;;;;;;10453272;28;20038;-61
2021/05/02 09:10:02;;;;;;;;;;;9.20;70.70;;;;;;10453547;28;19925;-61
2021/05/02 09:15:06;;;;;;;;;;;9.10;69.20;;;;;;10451862;28;19943;-61
2021/05/02 09:20:08;;;;;;;;;;;9.40;68.10;;;;;;10453014;28;20010;-61
2021/05/02 09:25:11;;;;;;;;;;;9.80;67.40;;;;;;10451580;28;20055;-61
2021/05/02 09:30:16;;;;;;;;;;;10.40;63.80;;;;;;10448569;28;20011;-62
2021/05/02 09:35:27;;;;;;;;;;;10.40;63.00;;;;;;10450773;28;19968;-61
2021/05/02 09:40:29;;;;;;;;;;;9.90;63.90;;;;;;10450788;28;20418;-61
2021/05/02 09:45:30;;;;;;;;;;;9.60;65.70;;;;;;10449761;28;19990;-61
2021/05/02 09:50:35;;;;;;;;;;;9.80;66.30;;;;;;10450649;28;20213;-61
2021/05/02 09:55:36;;;;;;;;;;;9.80;66.90;;;;;;10450516;28;19982;-61
2021/05/02 10:00:39;;;;;;;;;;;9.70;68.00;;;;;;10450696;28;19938;-61
2021/05/02 10:05:53;;;;;;;;;;;9.70;68.00;;;;;;10449691;28;19925;-61
2021/05/02 10:10:55;;;;;;;;;;;9.60;67.30;;;;;;10451179;28;20191;-61
2021/05/02 10:15:58;;;;;;;;;;;9.90;67.00;;;;;;10449999;28;20011;-61
2021/05/02 10:21:01;;;;;;;;;;;10.40;65.40;;;;;;10450664;28;19933;-62
2021/05/02 10:26:05;;;;;;;;;;;10.70;63.50;;;;;;10422608;28;20851;-61
2021/05/02 10:31:07;;;;;;;;;;;10.90;62.70;;;;;;10449697;28;20011;-61
2021/05/02 10:36:19;;;;;;;;;;;11.50;61.40;;;;;;10449891;28;19925;-61
2021/05/02 10:41:33;;;;;;;;;;;11.30;59.70;;;;;;10449746;28;19925;-61
2021/05/02 10:46:41;;;;;;;;;;;10.40;59.80;;;;;;10448173;28;20062;-61
2021/05/02 10:51:42;;;;;;;;;;;10.30;61.00;;;;;;10448211;28;19924;-61
2021/05/02 10:56:49;;;;;;;;;;;10.00;61.40;;;;;;10448612;28;19964;-61
2021/05/02 11:01:51;;;;;;;;;;;10.20;61.00;;;;;;10448132;28;20095;-61
2021/05/02 11:06:54;;;;;;;;;;;10.80;59.50;;;;;;10448702;28;19932;-61
2021/05/02 11:11:57;;;;;;;;;;;11.20;57.70;;;;;;10409294;28;20334;-61
2021/05/02 11:16:58;;;;;;;;;;;11.70;56.00;;;;;;10406142;28;20481;-61
2021/05/02 11:22:04;;;;;;;;;;;12.00;55.00;;;;;;10407127;28;19991;-62
2021/05/02 11:32:12;;;;;;;;;;;12.10;52.80;;;;;;10446739;28;19925;-61
2021/05/02 11:37:49;;;;;;;;;;;12.20;52.20;;;;;;10447726;28;19935;-61
2021/05/02 11:43:09;;;;;;;;;;;12.20;51.40;;;;;;10396729;28;20033;-62
2021/05/02 11:48:17;;;;;;;;;;;12.00;52.40;;;;;;10446705;28;20009;-61
2021/05/02 11:53:35;;;;;;;;;;;11.80;52.80;;;;;;10447375;28;20011;-61
2021/05/02 11:58:37;;;;;;;;;;;11.70;52.40;;;;;;10445858;28;19925;-61
2021/05/02 12:03:39;;;;;;;;;;;11.60;51.60;;;;;;10444289;28;19972;-61
2021/05/02 12:08:40;;;;;;;;;;;11.80;50.30;;;;;;10444916;28;19935;-62
2021/05/02 12:13:43;;;;;;;;;;;11.50;50.00;;;;;;10409090;28;20032;-61
2021/05/02 12:18:50;;;;;;;;;;;11.60;49.30;;;;;;10405853;28;19951;-61
2021/05/02 12:24:11;;;;;;;;;;;12.40;49.50;;;;;;10405044;28;19929;-62
2021/05/02 12:29:14;;;;;;;;;;;12.90;47.80;;;;;;10439371;28;20020;-61
2021/05/02 12:34:15;;;;;;;;;;;13.40;47.70;;;;;;10446791;28;19956;-62
2021/05/02 12:39:17;;;;;;;;;;;13.50;46.40;;;;;;10445050;28;20016;-62
2021/05/02 12:44:19;;;;;;;;;;;13.30;46.30;;;;;;10445338;28;19979;-61
2021/05/02 12:49:22;;;;;;;;;;;13.30;47.00;;;;;;10445733;28;19932;-62
2021/05/02 12:54:25;;;;;;;;;;;13.10;46.60;;;;;;10445906;28;20015;-62
2021/05/02 12:59:29;;;;;;;;;;;12.80;47.00;;;;;;10427984;28;19932;-62
2021/05/02 13:04:43;;;;;;;;;;;12.80;47.20;;;;;;10404332;28;19929;-62
2021/05/02 13:09:45;;;;;;;;;;;12.90;46.60;;;;;;10403892;28;19932;-62
2021/05/02 13:15:11;;;;;;;;;;;12.80;46.90;;;;;;10402504;28;20428;-61
2021/05/02 13:20:12;;;;;;;;;;;13.30;47.00;;;;;;10404394;28;19960;-61
2021/05/02 13:25:17;;;;;;;;;;;12.70;46.80;;;;;;10407057;28;19998;-62
2021/05/02 13:30:28;;;;;;;;;;;12.30;47.50;;;;;;10443703;28;20044;-62
2021/05/02 13:35:30;;;;;;;;;;;12.20;45.80;;;;;;10443215;28;20361;-61
2021/05/02 13:40:32;;;;;;;;;;;12.50;45.20;;;;;;10446845;28;20016;-62
2021/05/02 13:45:33;;;;;;;;;;;12.80;44.50;;;;;;10451450;28;19929;-62
2021/05/02 13:50:34;;;;;;;;;;;13.20;44.20;;;;;;10451966;28;20019;-62
2021/05/02 13:55:36;;;;;;;;;;;13.20;44.00;;;;;;10451102;28;19925;-62
2021/05/02 14:00:37;;;;;;;;;;;13.80;43.20;;;;;;10450523;28;19960;-62
2021/05/02 14:05:39;;;;;;;;;;;14.10;43.30;;;;;;10429208;28;19998;-62
2021/05/02 14:10:40;;;;;;;;;;;14.20;42.80;;;;;;10409320;28;19932;-62
2021/05/02 14:15:41;;;;;;;;;;;13.60;44.90;;;;;;10409303;28;20485;-61
2021/05/02 14:20:44;;;;;;;;;;;13.10;44.80;;;;;;10409532;28;19949;-61
2021/05/02 14:25:48;;;;;;;;;;;13.00;45.30;;;;;;10417074;28;19968;-61
2021/05/02 14:30:51;;;;;;;;;;;12.80;44.70;;;;;;10449119;28;19925;-61
2021/05/02 14:35:52;;;;;;;;;;;12.60;44.80;;;;;;10446808;28;19957;-61
2021/05/02 14:40:53;;;;;;;;;;;12.40;45.20;;;;;;10447358;28;20015;-61
2021/05/02 14:45:55;;;;;;;;;;;12.30;45.50;;;;;;10446410;28;19975;-61
2021/05/02 14:50:56;;;;;;;;;;;12.30;45.60;;;;;;10448800;28;19975;-62
2021/05/02 14:55:57;;;;;;;;;;;12.30;45.30;;;;;;10448365;28;20016;-61
2021/05/02 15:01:00;;;;;;;;;;;12.20;45.60;;;;;;10447632;28;19972;-61
2021/05/02 15:06:01;;;;;;;;;;;12.40;45.50;;;;;;10448727;28;19925;-61
2021/05/02 15:11:03;;;;;;;;;;;12.90;45.20;;;;;;10447551;28;19972;-61
2021/05/02 15:16:04;;;;;;;;;;;13.00;44.00;;;;;;10447607;28;19970;-61
2021/05/02 15:21:06;;;;;;;;;;;12.70;43.90;;;;;;10448085;28;19929;-61
2021/05/02 15:26:08;;;;;;;;;;;12.40;44.60;;;;;;10433723;28;19964;-61
2021/05/02 15:31:15;;;;;;;;;;;12.00;45.70;;;;;;10447542;28;20023;-61
2021/05/02 15:36:16;;;;;;;;;;;11.80;46.10;;;;;;10447900;28;20024;-61
2021/05/02 15:41:18;;;;;;;;;;;11.70;45.70;;;;;;10447692;28;19954;-61
2021/05/02 15:46:19;;;;;;;;;;;11.70;45.40;;;;;;10447027;28;19925;-61
2021/05/02 15:51:20;;;;;;;;;;;11.90;47.70;;;;;;10446507;28;19936;-62
2021/05/02 15:56:22;;;;;;;;;;;12.50;45.70;;;;;;10446401;28;20352;-62
2021/05/02 16:01:23;;;;;;;;;;;12.40;44.10;;;;;;10446864;28;19928;-61
2021/05/02 16:06:25;;;;;;;;;;;12.20;45.30;;;;;;10446388;28;20015;-61
2021/05/02 16:11:30;;;;;;;;;;;11.60;46.20;;;;;;10446237;28;20321;-61
2021/05/02 16:16:31;;;;;;;;;;;11.30;46.80;;;;;;10446612;28;19956;-61
2021/05/02 16:21:32;;;;;;;;;;;11.60;47.20;;;;;;10446058;28;20412;-61
2021/05/02 16:26:34;;;;;;;;;;;12.20;45.60;;;;;;10432824;28;20047;-62
2021/05/02 16:31:35;;;;;;;;;;;12.40;45.40;;;;;;10444466;28;19929;-61
2021/05/02 16:36:37;;;;;;;;;;;12.40;46.10;;;;;;10446284;28;20385;-61
2021/05/02 16:41:39;;;;;;;;;;;12.20;46.30;;;;;;10446178;28;19925;-61
2021/05/02 16:46:40;;;;;;;;;;;11.90;46.20;;;;;;10444503;28;19924;-61
2021/05/02 16:51:41;;;;;;;;;;;11.70;46.20;;;;;;10445856;28;20340;-62
2021/05/02 16:56:42;;;;;;;;;;;11.50;46.70;;;;;;10445228;28;20440;-61
2021/05/02 17:01:44;;;;;;;;;;;11.50;47.30;;;;;;10444326;28;20029;-62
2021/05/02 17:06:46;;;;;;;;;;;11.50;47.20;;;;;;10445597;28;20024;-61
2021/05/02 17:11:47;;;;;;;;;;;11.20;47.70;;;;;;10445516;28;19990;-61
2021/05/02 17:16:49;;;;;;;;;;;11.30;47.90;;;;;;10449317;28;20033;-62
2021/05/02 17:21:50;;;;;;;;;;;11.10;47.10;;;;;;10453432;28;19925;-61
2021/05/02 17:26:51;;;;;;;;;;;11.00;47.60;;;;;;10450898;28;20261;-61
2021/05/02 17:31:53;;;;;;;;;;;10.80;48.10;;;;;;10450433;28;19936;-61
2021/05/02 17:36:54;;;;;;;;;;;10.80;48.70;;;;;;10431210;28;19936;-61
2021/05/02 17:41:56;;;;;;;;;;;10.60;49.30;;;;;;10426141;28;20476;-61
2021/05/02 17:46:57;;;;;;;;;;;10.40;49.90;;;;;;10410973;28;19929;-61
2021/05/02 17:51:59;;;;;;;;;;;10.20;50.80;;;;;;10410741;28;19931;-61
2021/05/02 17:57:00;;;;;;;;;;;10.10;51.50;;;;;;10411185;28;20416;-61
2021/05/02 18:02:02;;;;;;;;;;;10.10;52.40;;;;;;10408801;28;20008;-61
2021/05/02 18:07:03;;;;;;;;;;;10.10;52.60;;;;;;10410216;28;19956;-61
2021/05/02 18:12:04;;;;;;;;;;;10.30;52.70;;;;;;10410337;28;20510;-61
2021/05/02 18:17:07;;;;;;;;;;;10.40;52.60;;;;;;10409043;28;19925;-62
2021/05/02 18:22:09;;;;;;;;;;;10.30;52.50;;;;;;10409627;28;20362;-61
2021/05/02 18:27:11;;;;;;;;;;;9.80;53.10;;;;;;10443784;28;19925;-62
2021/05/02 18:32:13;;;;;;;;;;;9.50;54.10;;;;;;10449326;28;19924;-62
2021/05/02 18:37:16;;;;;;;;;;;9.30;54.60;;;;;;10449447;28;19932;-61
2021/05/02 18:42:18;;;;;;;;;;;9.10;55.70;;;;;;10449238;28;20378;-61
2021/05/02 18:47:20;;;;;;;;;;;8.90;56.10;;;;;;10448416;28;20397;-61
2021/05/02 18:52:21;;;;;;;;;;;8.80;56.30;;;;;;10449774;28;19960;-61
2021/05/02 18:57:22;;;;;;;;;;;8.60;56.90;;;;;;10448481;28;20531;-61
2021/05/02 19:02:24;;;;;;;;;;;8.50;57.40;;;;;;10449121;28;20007;-61
2021/05/02 19:07:25;;;;;;;;;;;8.40;57.90;;;;;;10462938;28;19932;-61
2021/05/02 19:12:26;;;;;;;;;;;8.30;58.00;;;;;;10479276;28;20015;-61
2021/05/02 19:17:27;;;;;;;;;;;8.10;58.30;;;;;;10488468;28;19929;-61
2021/05/02 19:22:30;;;;;;;;;;;8.00;58.90;;;;;;10488324;28;19929;-62
2021/05/02 19:27:33;;;;;;;;;;;7.90;59.50;;;;;;10453051;28;19925;-61
2021/05/02 19:32:34;;;;;;;;;;;7.80;60.00;;;;;;10405464;28;20345;-61
2021/05/02 19:37:35;;;;;;;;;;;7.80;60.10;;;;;;10405188;28;19931;-61
2021/05/02 19:42:37;;;;;;;;;;;7.70;62.10;;;;;;10406798;28;20824;-61
2021/05/02 19:47:38;;;;;;;;;;;7.50;62.10;;;;;;10445293;28;20027;-61
2021/05/02 19:52:39;;;;;;;;;;;7.50;62.80;;;;;;10445521;28;19967;-61
2021/05/02 19:57:41;;;;;;;;;;;7.30;63.70;;;;;;10445188;28;20373;-61
2021/05/02 20:02:42;;;;;;;;;;;7.30;64.90;;;;;;10443759;28;19999;-61
2021/05/02 20:07:43;;;;;;;;;;;7.10;65.10;;;;;;10445554;28;20372;-61
2021/05/02 20:12:46;;;;;;;;;;;7.00;65.40;;;;;;10443800;28;20419;-61
2021/05/02 20:17:47;;;;;;;;;;;7.00;65.20;;;;;;10445458;28;19939;-61
2021/05/02 20:22:49;;;;;;;;;;;6.90;68.90;;;;;;10471203;28;20399;-61
2021/05/02 20:27:50;;;;;;;;;;;6.60;71.00;;;;;;10460354;28;19987;-61
2021/05/02 20:32:53;;;;;;;;;;;6.40;74.40;;;;;;10437984;28;20363;-61
2021/05/02 20:37:54;;;;;;;;;;;6.30;73.60;;;;;;10403239;28;19980;-61
2021/05/02 20:42:56;;;;;;;;;;;6.40;77.00;;;;;;10402161;28;19968;-61
2021/05/02 20:47:57;;;;;;;;;;;6.20;81.40;;;;;;10402712;28;19925;-61
2021/05/02 20:53:00;;;;;;;;;;;6.10;84.80;;;;;;10460412;28;19928;-61
2021/05/02 20:58:01;;;;;;;;;;;6.00;87.10;;;;;;10471920;28;20019;-70
2021/05/02 21:03:03;;;;;;;;;;;6.00;90.60;;;;;;10443837;28;20020;-69
2021/05/02 21:08:04;;;;;;;;;;;5.80;92.50;;;;;;10449571;28;20471;-70
2021/05/02 21:13:06;;;;;;;;;;;5.70;94.90;;;;;;10452778;28;20003;-70
2021/05/02 21:18:07;;;;;;;;;;;5.60;96.50;;;;;;10446195;28;19968;-69
2021/05/02 21:23:09;;;;;;;;;;;5.50;98.30;;;;;;10425880;28;19925;-69
2021/05/02 21:28:10;;;;;;;;;;;5.40;99.90;;;;;;10451486;28;20068;-69
2021/05/02 21:33:11;;;;;;;;;;;5.30;99.90;;;;;;10448056;28;20397;-70
2021/05/02 21:38:13;;;;;;;;;;;5.20;99.90;;;;;;10452580;28;19928;-70
2021/05/02 21:43:14;;;;;;;;;;;5.10;99.90;;;;;;10451178;28;20027;-69
2021/05/02 21:48:16;;;;;;;;;;;5.00;99.90;;;;;;10451789;28;20011;-69
2021/05/02 21:53:18;;;;;;;;;;;4.80;99.90;;;;;;10445262;28;20019;-70
2021/05/02 21:58:19;;;;;;;;;;;4.80;99.90;;;;;;10449293;28;19960;-70
2021/05/02 22:03:20;;;;;;;;;;;4.80;99.90;;;;;;10448528;28;20043;-70
2021/05/02 22:08:24;;;;;;;;;;;4.70;99.90;;;;;;10432020;28;20007;-70
2021/05/02 22:13:25;;;;;;;;;;;4.60;99.90;;;;;;10439612;28;19929;-70
2021/05/02 22:18:27;;;;;;;;;;;4.50;99.90;;;;;;10449377;28;20011;-70
2021/05/02 22:23:30;;;;;;;;;;;4.50;99.90;;;;;;10445701;28;20027;-70
2021/05/02 22:28:31;;;;;;;;;;;4.40;99.90;;;;;;10445201;28;20016;-70
2021/05/02 22:33:33;;;;;;;;;;;4.20;99.90;;;;;;10449314;28;19975;-70
2021/05/02 22:38:34;;;;;;;;;;;4.20;99.90;;;;;;10448640;28;19935;-70
2021/05/02 22:43:36;;;;;;;;;;;4.00;99.90;;;;;;10448696;28;19925;-70
2021/05/02 22:48:38;;;;;;;;;;;4.00;99.90;;;;;;10425350;28;20016;-70
2021/05/02 22:53:39;;;;;;;;;;;3.90;99.90;;;;;;10448413;28;19971;-70
2021/05/02 22:58:40;;;;;;;;;;;3.80;99.90;;;;;;10426321;28;19929;-70
2021/05/02 23:03:42;;;;;;;;;;;3.60;99.90;;;;;;10447817;28;20361;-70
2021/05/02 23:08:46;;;;;;;;;;;3.50;99.90;;;;;;10446669;28;19936;-70
2021/05/02 23:13:47;;;;;;;;;;;3.60;99.90;;;;;;10446139;28;19967;-70
2021/05/02 23:18:48;;;;;;;;;;;3.60;99.90;;;;;;10446718;28;19929;-70
2021/05/02 23:23:50;;;;;;;;;;;3.50;99.90;;;;;;10447169;28;20004;-70
2021/05/02 23:28:52;;;;;;;;;;;3.50;99.90;;;;;;10447168;28;19978;-70
2021/05/02 23:33:55;;;;;;;;;;;3.50;99.90;;;;;;10445524;28;19966;-70
2021/05/02 23:38:56;;;;;;;;;;;3.50;99.90;;;;;;10445964;28;19979;-70
2021/05/02 23:43:57;;;;;;;;;;;3.50;99.90;;;;;;10446001;28;20277;-70
2021/05/02 23:48:59;;;;;;;;;;;3.30;99.90;;;;;;10446754;28;20392;-70
2021/05/02 23:54:00;;;;;;;;;;;3.20;99.90;;;;;;10445535;28;20019;-70
2021/05/02 23:59:02;;;;;;;;;;;3.20;99.90;;;;;;10428917;28;20019;-70
